Time;durP1;ratioP1;P1;durP2;ratioP2;P2;SDS_P1;SDS_P2;PMS_P1;PMS_P2;Temp;Humidity;BMP_temperature;BMP_pressure;BME280_temperature;BME280_humidity;BME280_pressure;Samples;Min_cycle;Max_cycle;Signal;HPM_P1;HPM_P2
2023/12/16 08:26:30;;;;;;;0.10;0.10;;;;;;;;;;5076927;28;20154;-72
2023/12/16 08:28:55;;;;;;;0.22;0.22;;;;;;;;;;5068352;28;20053;-68
2023/12/16 08:31:21;;;;;;;0.10;0.10;;;;;;;;;;5069130;28;20095;-69
2023/12/16 08:33:47;;;;;;;0.10;0.10;;;;;;;;;;5069347;28;20025;-69
2023/12/16 08:36:13;;;;;;;0.10;0.10;;;;;;;;;;5068918;28;20017;-71
2023/12/16 08:38:41;;;;;;;0.10;0.10;;;;;;;;;;5068274;28;20078;-69
2023/12/16 08:41:08;;;;;;;0.10;0.10;;;;;;;;;;5068659;28;20027;-69
2023/12/16 08:43:34;;;;;;;0.10;0.10;;;;;;;;;;5069459;28;20037;-69
2023/12/16 08:46:00;;;;;;;0.10;0.10;;;;;;;;;;5068872;28;20025;-69
2023/12/16 08:48:26;;;;;;;0.10;0.10;;;;;;;;;;5068628;28;20119;-69
2023/12/16 08:50:53;;;;;;;0.10;0.10;;;;;;;;;;5069252;28;20093;-69
2023/12/16 08:53:19;;;;;;;0.10;0.10;;;;;;;;;;5069283;28;20479;-69
2023/12/16 08:55:44;;;;;;;0.10;0.10;;;;;;;;;;5051119;28;20020;-70
2023/12/16 08:58:10;;;;;;;0.10;0.10;;;;;;;;;;5064647;28;20013;-69
2023/12/16 09:00:36;;;;;;;2.08;0.57;;;;;;;;;;5049249;28;20029;-69
2023/12/16 09:03:01;;;;;;;0.28;0.28;;;;;;;;;;5067703;28;20028;-69
2023/12/16 09:05:28;;;;;;;0.10;0.10;;;;;;;;;;5068481;28;20487;-69
2023/12/16 09:07:54;;;;;;;0.10;0.10;;;;;;;;;;5067595;28;20035;-69
2023/12/16 09:10:20;;;;;;;0.10;0.10;;;;;;;;;;5069310;28;20528;-69
2023/12/16 09:12:47;;;;;;;0.47;0.38;;;;;;;;;;5068907;28;20036;-69
2023/12/16 09:15:13;;;;;;;0.20;0.20;;;;;;;;;;5068934;28;20067;-69
2023/12/16 09:17:38;;;;;;;0.10;0.10;;;;;;;;;;5068802;28;20109;-75
2023/12/16 09:20:05;;;;;;;0.13;0.13;;;;;;;;;;5051093;28;20384;-75
2023/12/16 09:22:30;;;;;;;0.20;0.20;;;;;;;;;;5069066;28;20082;-75
2023/12/16 09:24:56;;;;;;;0.20;0.20;;;;;;;;;;5068070;28;20576;-74
2023/12/16 09:27:22;;;;;;;0.10;0.10;;;;;;;;;;5070959;28;20047;-76
2023/12/16 09:29:47;;;;;;;0.20;0.20;;;;;;;;;;5054525;28;20419;-74
2023/12/16 09:32:14;;;;;;;0.20;0.20;;;;;;;;;;5070758;28;20115;-74
2023/12/16 09:34:41;;;;;;;0.52;0.20;;;;;;;;;;5054203;28;20020;-74
2023/12/16 09:37:08;;;;;;;0.28;0.22;;;;;;;;;;5071718;28;20036;-74
2023/12/16 09:39:34;;;;;;;0.20;0.20;;;;;;;;;;5072677;28;20024;-76
2023/12/16 09:42:02;;;;;;;0.63;0.30;;;;;;;;;;5062165;28;20043;-77
2023/12/16 09:44:28;;;;;;;0.28;0.28;;;;;;;;;;5037555;28;20029;-77
2023/12/16 09:46:56;;;;;;;0.13;0.13;;;;;;;;;;5053970;28;20609;-76
2023/12/16 09:49:24;;;;;;;0.10;0.10;;;;;;;;;;5054026;28;20124;-75
2023/12/16 09:51:49;;;;;;;2.10;0.95;;;;;;;;;;5054050;28;20024;-77
2023/12/16 09:54:16;;;;;;;0.10;0.10;;;;;;;;;;5043456;28;20081;-79
2023/12/16 09:56:44;;;;;;;0.10;0.10;;;;;;;;;;5074264;28;20032;-75
2023/12/16 09:59:10;;;;;;;0.70;0.63;;;;;;;;;;5057224;28;20115;-76
2023/12/16 10:01:36;;;;;;;0.30;0.22;;;;;;;;;;5056996;28;20036;-76
2023/12/16 10:04:03;;;;;;;0.35;0.35;;;;;;;;;;5073980;28;20031;-75
2023/12/16 10:06:29;;;;;;;0.10;0.10;;;;;;;;;;5057105;28;20020;-75
2023/12/16 10:08:55;;;;;;;0.10;0.10;;;;;;;;;;5072252;28;20436;-75
2023/12/16 10:11:21;;;;;;;0.52;0.50;;;;;;;;;;5073586;28;20539;-76
2023/12/16 10:13:57;;;;;;;0.10;0.10;;;;;;;;;;5073758;28;20059;-75
2023/12/16 10:16:24;;;;;;;0.20;0.20;;;;;;;;;;5056508;28;20471;-76
2023/12/16 10:18:53;;;;;;;0.10;0.10;;;;;;;;;;5055488;28;20498;-76
2023/12/16 10:21:30;;;;;;;0.17;0.17;;;;;;;;;;5054464;28;20044;-75
2023/12/16 10:23:56;;;;;;;1.65;0.30;;;;;;;;;;5070255;28;20108;-76
2023/12/16 10:26:22;;;;;;;0.10;0.10;;;;;;;;;;5053150;28;20403;-77
2023/12/16 10:28:52;;;;;;;0.25;0.20;;;;;;;;;;5050137;28;20053;-78
2023/12/16 10:31:19;;;;;;;0.20;0.20;;;;;;;;;;5033862;28;20041;-74
2023/12/16 10:33:45;;;;;;;0.43;0.43;;;;;;;;;;5033518;28;20021;-75
2023/12/16 10:36:11;;;;;;;0.38;0.30;;;;;;;;;;5033450;28;20036;-76
2023/12/16 10:38:38;;;;;;;0.30;0.30;;;;;;;;;;5050261;28;20017;-76
2023/12/16 10:41:04;;;;;;;0.20;0.20;;;;;;;;;;5033529;28;20194;-75
2023/12/16 10:43:30;;;;;;;0.20;0.20;;;;;;;;;;5033488;28;20033;-74
2023/12/16 10:45:58;;;;;;;0.40;0.30;;;;;;;;;;5049448;28;20040;-73
2023/12/16 10:48:25;;;;;;;0.35;0.35;;;;;;;;;;5032467;28;20033;-73
2023/12/16 10:50:51;;;;;;;0.10;0.10;;;;;;;;;;5033063;28;20051;-73
2023/12/16 10:53:23;;;;;;;1.08;1.05;;;;;;;;;;5050923;28;20047;-74
2023/12/16 10:55:54;;;;;;;0.43;0.43;;;;;;;;;;5033166;28;20124;-75
2023/12/16 10:58:30;;;;;;;0.47;0.45;;;;;;;;;;5033232;28;20029;-73
2023/12/16 11:01:01;;;;;;;0.20;0.20;;;;;;;;;;5047294;28;20043;-73
2023/12/16 11:03:37;;;;;;;0.15;0.15;;;;;;;;;;5052045;28;20028;-74
2023/12/16 11:06:07;;;;;;;0.70;0.55;;;;;;;;;;5052671;28;20028;-73
2023/12/16 11:08:33;;;;;;;1.63;1.20;;;;;;;;;;5049006;28;20044;-75
2023/12/16 11:10:59;;;;;;;0.30;0.30;;;;;;;;;;5044890;28;20033;-75
2023/12/16 11:13:25;;;;;;;0.57;0.57;;;;;;;;;;5049690;28;20024;-76
2023/12/16 11:15:55;;;;;;;0.20;0.20;;;;;;;;;;5049104;28;20029;-76
2023/12/16 11:18:22;;;;;;;0.20;0.20;;;;;;;;;;5050660;28;20075;-76
2023/12/16 11:20:53;;;;;;;0.20;0.20;;;;;;;;;;5033007;28;20059;-75
2023/12/16 11:23:19;;;;;;;0.10;0.10;;;;;;;;;;5049334;28;20128;-79
2023/12/16 11:25:47;;;;;;;0.20;0.20;;;;;;;;;;5032674;28;20029;-76
2023/12/16 11:28:14;;;;;;;0.63;0.50;;;;;;;;;;5079493;28;20075;-77
2023/12/16 11:30:41;;;;;;;0.85;0.30;;;;;;;;;;5071968;28;20024;-75
2023/12/16 11:33:07;;;;;;;0.20;0.20;;;;;;;;;;5071569;28;20020;-76
2023/12/16 11:35:36;;;;;;;0.20;0.20;;;;;;;;;;5055325;28;20020;-75
2023/12/16 11:38:02;;;;;;;0.20;0.20;;;;;;;;;;5071408;28;20024;-73
2023/12/16 11:40:46;;;;;;;0.20;0.20;;;;;;;;;;5049428;28;20062;-74
2023/12/16 11:43:12;;;;;;;1.75;0.20;;;;;;;;;;5069650;28;20414;-75
2023/12/16 11:45:42;;;;;;;0.77;0.77;;;;;;;;;;5054690;28;20012;-78
2023/12/16 11:48:13;;;;;;;0.80;0.35;;;;;;;;;;5054917;28;20020;-74
2023/12/16 11:50:48;;;;;;;0.30;0.30;;;;;;;;;;5054426;28;20160;-75
2023/12/16 11:53:17;;;;;;;0.20;0.20;;;;;;;;;;5055407;28;20434;-75
2023/12/16 11:55:43;;;;;;;0.20;0.20;;;;;;;;;;5090040;28;20031;-76
2023/12/16 11:58:09;;;;;;;0.20;0.20;;;;;;;;;;5055106;28;20266;-76
2023/12/16 12:00:35;;;;;;;0.20;0.20;;;;;;;;;;5054505;28;20032;-75
2023/12/16 12:03:01;;;;;;;0.20;0.20;;;;;;;;;;5054665;28;20039;-76
2023/12/16 12:05:27;;;;;;;0.30;0.30;;;;;;;;;;5070382;28;20419;-76
2023/12/16 12:07:54;;;;;;;0.30;0.30;;;;;;;;;;5054320;28;20024;-75
2023/12/16 12:10:21;;;;;;;0.20;0.20;;;;;;;;;;5054842;28;20066;-75
2023/12/16 12:12:48;;;;;;;0.30;0.30;;;;;;;;;;5071343;28;20024;-77
2023/12/16 12:15:14;;;;;;;0.20;0.20;;;;;;;;;;5055056;28;20031;-75
2023/12/16 12:17:40;;;;;;;0.20;0.20;;;;;;;;;;5054618;28;20020;-78
2023/12/16 12:20:07;;;;;;;0.10;0.10;;;;;;;;;;5071263;28;20032;-75
2023/12/16 12:22:33;;;;;;;0.20;0.20;;;;;;;;;;5071341;28;20790;-76
2023/12/16 12:25:00;;;;;;;0.20;0.20;;;;;;;;;;5054020;28;20078;-76
2023/12/16 12:27:30;;;;;;;0.65;0.20;;;;;;;;;;5050904;28;20135;-76
2023/12/16 12:30:00;;;;;;;0.20;0.20;;;;;;;;;;5051246;28;20025;-75
2023/12/16 12:32:27;;;;;;;0.40;0.40;;;;;;;;;;5067636;28;20041;-76
2023/12/16 12:35:00;;;;;;;1.00;0.50;;;;;;;;;;5067649;28;20031;-76
2023/12/16 12:37:26;;;;;;;1.30;0.43;;;;;;;;;;5066001;28;20118;-76
2023/12/16 12:39:52;;;;;;;0.20;0.20;;;;;;;;;;5050960;28;20028;-76
2023/12/16 12:42:18;;;;;;;0.30;0.30;;;;;;;;;;5048359;28;20032;-74
2023/12/16 12:44:52;;;;;;;0.20;0.20;;;;;;;;;;5050821;28;20023;-75
2023/12/16 12:47:27;;;;;;;0.20;0.20;;;;;;;;;;5067395;28;20199;-77
2023/12/16 12:49:54;;;;;;;0.20;0.20;;;;;;;;;;5050567;28;20399;-76
2023/12/16 12:52:33;;;;;;;0.88;0.88;;;;;;;;;;5068894;28;20025;-75
2023/12/16 12:54:59;;;;;;;0.28;0.28;;;;;;;;;;5064830;28;20375;-76
2023/12/16 12:57:25;;;;;;;0.20;0.20;;;;;;;;;;5050473;28;20037;-75
2023/12/16 12:59:51;;;;;;;0.20;0.20;;;;;;;;;;5050214;28;20120;-75
2023/12/16 13:02:18;;;;;;;0.25;0.25;;;;;;;;;;5050682;28;20044;-75
2023/12/16 13:04:44;;;;;;;0.28;0.28;;;;;;;;;;5050406;28;20101;-74
2023/12/16 13:07:09;;;;;;;0.20;0.20;;;;;;;;;;5050700;28;20028;-76
2023/12/16 13:09:35;;;;;;;0.20;0.20;;;;;;;;;;5067417;28;20028;-75
2023/12/16 13:12:01;;;;;;;0.30;0.30;;;;;;;;;;5068235;28;20032;-78
2023/12/16 13:14:29;;;;;;;0.20;0.20;;;;;;;;;;5054850;28;20029;-74
2023/12/16 13:16:54;;;;;;;0.20;0.20;;;;;;;;;;5046090;28;20031;-75
2023/12/16 13:19:20;;;;;;;0.30;0.30;;;;;;;;;;5070588;28;20357;-75
2023/12/16 13:21:46;;;;;;;0.20;0.20;;;;;;;;;;5070547;28;20028;-74
2023/12/16 13:24:13;;;;;;;0.28;0.28;;;;;;;;;;5071258;28;20028;-75
2023/12/16 13:26:39;;;;;;;7.38;3.33;;;;;;;;;;5070431;28;20055;-73
2023/12/16 13:29:06;;;;;;;0.52;0.43;;;;;;;;;;5072105;28;20479;-75
2023/12/16 13:31:31;;;;;;;0.20;0.20;;;;;;;;;;5073556;28;20043;-75
2023/12/16 13:33:57;;;;;;;0.22;0.22;;;;;;;;;;5056822;28;20032;-75
2023/12/16 13:36:26;;;;;;;0.28;0.28;;;;;;;;;;5073151;28;20039;-76
2023/12/16 13:38:52;;;;;;;0.40;0.40;;;;;;;;;;5056145;28;20426;-75
2023/12/16 13:41:18;;;;;;;0.20;0.20;;;;;;;;;;5073203;28;20024;-74
2023/12/16 13:43:47;;;;;;;0.57;0.45;;;;;;;;;;5056356;28;20361;-75
2023/12/16 13:46:13;;;;;;;1.60;1.50;;;;;;;;;;5056647;28;20121;-76
2023/12/16 13:48:39;;;;;;;0.60;0.40;;;;;;;;;;5057945;28;20502;-74
2023/12/16 13:51:05;;;;;;;0.32;0.32;;;;;;;;;;5057006;28;20482;-78
2023/12/16 13:53:31;;;;;;;0.20;0.20;;;;;;;;;;5055526;28;20084;-74
2023/12/16 13:55:57;;;;;;;0.20;0.20;;;;;;;;;;5055697;28;20372;-74
2023/12/16 13:58:23;;;;;;;0.45;0.40;;;;;;;;;;5055214;28;20062;-76
2023/12/16 14:00:49;;;;;;;0.20;0.20;;;;;;;;;;5070640;28;20082;-76
2023/12/16 14:03:14;;;;;;;0.20;0.20;;;;;;;;;;5071360;28;20029;-75
2023/12/16 14:05:41;;;;;;;0.20;0.20;;;;;;;;;;5070754;28;20031;-76
2023/12/16 14:08:07;;;;;;;0.20;0.20;;;;;;;;;;5053964;28;20036;-75
2023/12/16 14:10:33;;;;;;;0.20;0.20;;;;;;;;;;5053916;28;20037;-74
2023/12/16 14:12:59;;;;;;;0.75;0.55;;;;;;;;;;5054879;28;20041;-74
2023/12/16 14:15:25;;;;;;;0.30;0.30;;;;;;;;;;5053691;28;20392;-73
2023/12/16 14:17:50;;;;;;;0.32;0.28;;;;;;;;;;5053778;28;20486;-74
2023/12/16 14:20:16;;;;;;;0.20;0.20;;;;;;;;;;5054196;28;20035;-74
2023/12/16 14:22:42;;;;;;;0.35;0.35;;;;;;;;;;5053348;28;20047;-76
2023/12/16 14:25:09;;;;;;;0.20;0.20;;;;;;;;;;5070909;28;20028;-75
2023/12/16 14:27:37;;;;;;;0.20;0.20;;;;;;;;;;5071564;28;20076;-74
2023/12/16 14:30:05;;;;;;;0.30;0.30;;;;;;;;;;5053644;28;20036;-74
2023/12/16 14:32:30;;;;;;;0.20;0.20;;;;;;;;;;5071286;28;20078;-75
2023/12/16 14:34:57;;;;;;;0.20;0.20;;;;;;;;;;5071643;28;20051;-76
2023/12/16 14:37:23;;;;;;;0.20;0.20;;;;;;;;;;5053312;28;20028;-75
2023/12/16 14:39:49;;;;;;;0.20;0.20;;;;;;;;;;5053530;28;20533;-75
2023/12/16 14:42:15;;;;;;;0.20;0.20;;;;;;;;;;5053636;28;20032;-74
2023/12/16 14:44:41;;;;;;;0.20;0.20;;;;;;;;;;5069487;28;20069;-75
2023/12/16 14:47:07;;;;;;;0.63;0.63;;;;;;;;;;5069785;28;20033;-74
2023/12/16 14:49:32;;;;;;;0.20;0.20;;;;;;;;;;5052937;28;20074;-76
2023/12/16 14:51:58;;;;;;;0.20;0.20;;;;;;;;;;5036282;28;20040;-75
2023/12/16 14:54:24;;;;;;;0.20;0.20;;;;;;;;;;5053034;28;20033;-75
2023/12/16 14:56:51;;;;;;;2.60;2.40;;;;;;;;;;5052724;28;20067;-73
2023/12/16 14:59:17;;;;;;;0.73;0.73;;;;;;;;;;5052737;28;20349;-73
2023/12/16 15:01:42;;;;;;;0.20;0.20;;;;;;;;;;5052953;28;20121;-74
2023/12/16 15:04:08;;;;;;;0.20;0.20;;;;;;;;;;5036207;28;20033;-75
2023/12/16 15:06:35;;;;;;;0.20;0.20;;;;;;;;;;5052281;28;20028;-74
2023/12/16 15:09:00;;;;;;;0.20;0.20;;;;;;;;;;5055884;28;20030;-75
2023/12/16 15:11:27;;;;;;;0.20;0.20;;;;;;;;;;5048458;28;20068;-74
2023/12/16 15:13:52;;;;;;;0.20;0.20;;;;;;;;;;5052986;28;20056;-74
2023/12/16 15:16:18;;;;;;;0.20;0.20;;;;;;;;;;5052903;28;20074;-75
2023/12/16 15:18:44;;;;;;;0.20;0.20;;;;;;;;;;5055465;28;20039;-75
2023/12/16 15:21:10;;;;;;;0.30;0.30;;;;;;;;;;5051058;28;20025;-73
2023/12/16 15:23:36;;;;;;;0.22;0.22;;;;;;;;;;5055568;28;20036;-74
2023/12/16 15:26:02;;;;;;;0.20;0.20;;;;;;;;;;5055831;28;20047;-74
2023/12/16 15:28:28;;;;;;;0.40;0.40;;;;;;;;;;5051947;28;20048;-73
2023/12/16 15:30:54;;;;;;;0.20;0.20;;;;;;;;;;5068703;28;20101;-77
2023/12/16 15:33:20;;;;;;;0.20;0.20;;;;;;;;;;5070349;28;20087;-74
2023/12/16 15:35:46;;;;;;;0.20;0.20;;;;;;;;;;5069374;28;20059;-75
2023/12/16 15:38:14;;;;;;;0.25;0.25;;;;;;;;;;5048619;28;20120;-76
2023/12/16 15:40:42;;;;;;;4.32;4.10;;;;;;;;;;5066158;28;20514;-76
2023/12/16 15:43:09;;;;;;;1.02;0.77;;;;;;;;;;5067056;28;20032;-76
2023/12/16 15:45:34;;;;;;;1.65;1.55;;;;;;;;;;5067632;28;20012;-74
2023/12/16 15:48:00;;;;;;;0.40;0.40;;;;;;;;;;5067738;28;20032;-76
2023/12/16 15:50:26;;;;;;;0.20;0.20;;;;;;;;;;5067120;28;20028;-77
2023/12/16 15:52:52;;;;;;;0.57;0.57;;;;;;;;;;5066986;28;20127;-75
2023/12/16 15:55:20;;;;;;;0.20;0.20;;;;;;;;;;5064835;28;20536;-75
2023/12/16 15:57:47;;;;;;;0.85;0.43;;;;;;;;;;5065162;28;20089;-76
2023/12/16 16:00:13;;;;;;;0.38;0.38;;;;;;;;;;5066386;28;20086;-75
2023/12/16 16:02:39;;;;;;;0.10;0.10;;;;;;;;;;5043986;28;20049;-74
2023/12/16 16:05:05;;;;;;;0.10;0.10;;;;;;;;;;5046137;28;20060;-75
2023/12/16 16:07:31;;;;;;;6.25;5.78;;;;;;;;;;5046246;28;20404;-75
2023/12/16 16:09:56;;;;;;;0.10;0.10;;;;;;;;;;5030166;28;20559;-75
2023/12/16 16:12:22;;;;;;;0.10;0.10;;;;;;;;;;5046298;28;20514;-76
2023/12/16 16:14:49;;;;;;;0.20;0.20;;;;;;;;;;5029427;28;20037;-75
2023/12/16 16:17:14;;;;;;;0.17;0.17;;;;;;;;;;5046669;28;20056;-75
2023/12/16 16:19:40;;;;;;;1.23;1.23;;;;;;;;;;5065992;28;20846;-75
2023/12/16 16:22:12;;;;;;;0.15;0.15;;;;;;;;;;5049417;28;20399;-74
2023/12/16 16:24:38;;;;;;;0.10;0.10;;;;;;;;;;5045743;28;20037;-75
2023/12/16 16:27:04;;;;;;;0.13;0.13;;;;;;;;;;5029023;28;20102;-78
2023/12/16 16:29:30;;;;;;;0.10;0.10;;;;;;;;;;5046241;28;20116;-76
2023/12/16 16:31:56;;;;;;;0.10;0.10;;;;;;;;;;5047942;28;20196;-74
2023/12/16 16:34:22;;;;;;;0.10;0.10;;;;;;;;;;5049406;28;20032;-77
2023/12/16 16:36:48;;;;;;;0.10;0.10;;;;;;;;;;5049558;28;20395;-74
2023/12/16 16:39:14;;;;;;;0.10;0.10;;;;;;;;;;5048933;28;20075;-75
2023/12/16 16:41:39;;;;;;;0.10;0.10;;;;;;;;;;5067663;28;20081;-76
2023/12/16 16:44:05;;;;;;;0.10;0.10;;;;;;;;;;5049336;28;20135;-74
2023/12/16 16:46:31;;;;;;;0.20;0.20;;;;;;;;;;5065579;28;20020;-69
2023/12/16 16:48:56;;;;;;;5.63;3.58;;;;;;;;;;5070214;28;20590;-71
2023/12/16 16:51:22;;;;;;;1.45;0.32;;;;;;;;;;5071136;28;20056;-70
2023/12/16 16:53:48;;;;;;;4.60;2.92;;;;;;;;;;5071562;28;20468;-70
2023/12/16 16:56:14;;;;;;;5.72;2.70;;;;;;;;;;5070166;28;20021;-70
2023/12/16 16:58:42;;;;;;;0.20;0.20;;;;;;;;;;5070815;28;20028;-69
2023/12/16 17:01:08;;;;;;;2.47;0.77;;;;;;;;;;5071092;28;20429;-70
2023/12/16 17:03:35;;;;;;;16.00;3.72;;;;;;;;;;5070548;28;20028;-72
2023/12/16 17:06:04;;;;;;;0.10;0.10;;;;;;;;;;5053057;28;20012;-71
2023/12/16 17:08:30;;;;;;;3.13;2.97;;;;;;;;;;5070683;28;20480;-71
2023/12/16 17:10:56;;;;;;;0.20;0.20;;;;;;;;;;5066026;28;20061;-70
2023/12/16 17:13:22;;;;;;;0.50;0.50;;;;;;;;;;5069801;28;20029;-70
2023/12/16 17:15:48;;;;;;;0.20;0.20;;;;;;;;;;5070764;28;20039;-69
2023/12/16 17:18:14;;;;;;;0.10;0.10;;;;;;;;;;5070827;28;20376;-69
2023/12/16 17:20:40;;;;;;;0.10;0.10;;;;;;;;;;5069245;28;20040;-69
2023/12/16 17:23:05;;;;;;;0.10;0.10;;;;;;;;;;5070459;28;20036;-70
2023/12/16 17:25:31;;;;;;;0.17;0.17;;;;;;;;;;5070464;28;20543;-70
2023/12/16 17:27:57;;;;;;;0.17;0.17;;;;;;;;;;5080918;28;20701;-70
2023/12/16 17:30:22;;;;;;;0.17;0.17;;;;;;;;;;5072979;28;20113;-71
2023/12/16 17:32:48;;;;;;;0.10;0.10;;;;;;;;;;5090563;28;20043;-69
2023/12/16 17:35:14;;;;;;;0.20;0.20;;;;;;;;;;5089680;28;20035;-70
2023/12/16 17:37:40;;;;;;;0.10;0.10;;;;;;;;;;5054773;28;20040;-70
2023/12/16 17:40:06;;;;;;;0.10;0.10;;;;;;;;;;5081826;28;20083;-70
2023/12/16 17:42:32;;;;;;;3.85;1.98;;;;;;;;;;5090013;28;20028;-68
2023/12/16 17:44:58;;;;;;;0.20;0.20;;;;;;;;;;5090652;28;20036;-70
2023/12/16 17:47:24;;;;;;;0.13;0.13;;;;;;;;;;5090580;28;20027;-69
2023/12/16 17:49:50;;;;;;;0.10;0.10;;;;;;;;;;5083871;28;20028;-68
2023/12/16 17:52:17;;;;;;;0.10;0.10;;;;;;;;;;5072728;28;20032;-70
2023/12/16 17:54:42;;;;;;;0.10;0.10;;;;;;;;;;5091539;28;20024;-70
2023/12/16 17:57:08;;;;;;;0.20;0.20;;;;;;;;;;5066601;28;20137;-70
2023/12/16 17:59:34;;;;;;;0.20;0.20;;;;;;;;;;5074597;28;20027;-70
2023/12/16 18:02:00;;;;;;;0.52;0.52;;;;;;;;;;5069522;28;20024;-70
2023/12/16 18:04:25;;;;;;;0.30;0.30;;;;;;;;;;5069868;28;20115;-70
2023/12/16 18:06:52;;;;;;;0.20;0.20;;;;;;;;;;5069960;28;20039;-69
2023/12/16 18:09:19;;;;;;;0.10;0.10;;;;;;;;;;5070032;28;20045;-69
2023/12/16 18:11:44;;;;;;;0.10;0.10;;;;;;;;;;5064078;28;20040;-70
2023/12/16 18:14:11;;;;;;;0.20;0.20;;;;;;;;;;5082908;28;20486;-70
2023/12/16 18:16:37;;;;;;;0.10;0.10;;;;;;;;;;5089410;28;20123;-69
2023/12/16 18:19:06;;;;;;;0.20;0.20;;;;;;;;;;5088912;28;20085;-70
2023/12/16 18:21:32;;;;;;;0.10;0.10;;;;;;;;;;5089323;28;20036;-70
2023/12/16 18:23:59;;;;;;;0.20;0.20;;;;;;;;;;5071020;28;20024;-70
2023/12/16 18:26:25;;;;;;;0.85;0.85;;;;;;;;;;5069935;28;20035;-70
2023/12/16 18:28:51;;;;;;;0.20;0.20;;;;;;;;;;5089022;28;20044;-70
2023/12/16 18:31:16;;;;;;;1.95;1.25;;;;;;;;;;5089276;28;20113;-70
2023/12/16 18:33:42;;;;;;;0.10;0.10;;;;;;;;;;5086673;28;20023;-70
2023/12/16 18:36:09;;;;;;;0.20;0.20;;;;;;;;;;5089596;28;20099;-71
2023/12/16 18:38:35;;;;;;;0.10;0.10;;;;;;;;;;5089018;28;20054;-70
2023/12/16 18:41:02;;;;;;;0.10;0.10;;;;;;;;;;5089577;28;20020;-71
2023/12/16 18:43:27;;;;;;;0.30;0.30;;;;;;;;;;5089260;28;20020;-71
2023/12/16 18:45:53;;;;;;;0.28;0.28;;;;;;;;;;5070302;28;20039;-70
2023/12/16 18:48:19;;;;;;;0.10;0.10;;;;;;;;;;5086146;28;20378;-70
2023/12/16 18:50:47;;;;;;;0.10;0.10;;;;;;;;;;5067810;28;20024;-71
2023/12/16 18:53:16;;;;;;;0.10;0.10;;;;;;;;;;5079402;28;20044;-70
2023/12/16 18:55:41;;;;;;;0.28;0.28;;;;;;;;;;5089320;28;20538;-69
2023/12/16 18:58:07;;;;;;;0.10;0.10;;;;;;;;;;5091080;28;20110;-69
2023/12/16 19:00:33;;;;;;;0.10;0.10;;;;;;;;;;5069566;28;20380;-71
2023/12/16 19:02:59;;;;;;;0.25;0.25;;;;;;;;;;5090159;28;20042;-70
2023/12/16 19:05:24;;;;;;;0.10;0.10;;;;;;;;;;5089959;28;20058;-70
2023/12/16 19:07:50;;;;;;;0.20;0.20;;;;;;;;;;5083470;28;20491;-70
2023/12/16 19:10:16;;;;;;;0.20;0.20;;;;;;;;;;5071295;28;20434;-70
2023/12/16 19:12:42;;;;;;;1.38;1.33;;;;;;;;;;5089631;28;20093;-70
2023/12/16 19:15:07;;;;;;;0.10;0.10;;;;;;;;;;5089923;28;20405;-68
2023/12/16 19:17:33;;;;;;;0.20;0.20;;;;;;;;;;5072094;28;20020;-70
2023/12/16 19:19:59;;;;;;;0.10;0.10;;;;;;;;;;5090465;28;20059;-70
2023/12/16 19:22:24;;;;;;;0.17;0.17;;;;;;;;;;5090949;28;20036;-70
2023/12/16 19:24:53;;;;;;;0.10;0.10;;;;;;;;;;5091029;28;21008;-70
2023/12/16 19:27:19;;;;;;;0.10;0.10;;;;;;;;;;5084294;28;20383;-69
2023/12/16 19:29:45;;;;;;;0.50;0.50;;;;;;;;;;5079023;28;20028;-68
2023/12/16 19:32:10;;;;;;;0.47;0.47;;;;;;;;;;5070033;28;20052;-70
2023/12/16 19:34:36;;;;;;;0.20;0.20;;;;;;;;;;5070462;28;20027;-70
2023/12/16 19:37:02;;;;;;;0.35;0.35;;;;;;;;;;5083963;28;20048;-71
2023/12/16 19:39:28;;;;;;;1.73;1.73;;;;;;;;;;5069377;28;20035;-69
2023/12/16 19:41:55;;;;;;;0.73;0.73;;;;;;;;;;5070226;28;20424;-70
2023/12/16 19:44:24;;;;;;;0.10;0.10;;;;;;;;;;5080053;28;20028;-71
2023/12/16 19:46:50;;;;;;;0.10;0.10;;;;;;;;;;5090429;28;20383;-71
2023/12/16 19:49:16;;;;;;;0.25;0.25;;;;;;;;;;5089310;28;20040;-71
2023/12/16 19:51:42;;;;;;;0.10;0.10;;;;;;;;;;5087617;28;20035;-70
2023/12/16 19:54:09;;;;;;;0.10;0.10;;;;;;;;;;5088796;28;20012;-70
2023/12/16 19:56:34;;;;;;;0.10;0.10;;;;;;;;;;5090586;28;20024;-69
2023/12/16 19:59:00;;;;;;;0.10;0.10;;;;;;;;;;5090271;28;20104;-71
2023/12/16 20:01:26;;;;;;;0.10;0.10;;;;;;;;;;5072589;28;20031;-71
2023/12/16 20:03:52;;;;;;;0.10;0.10;;;;;;;;;;5091202;28;20047;-70
2023/12/16 20:06:18;;;;;;;0.10;0.10;;;;;;;;;;5071690;28;20032;-71
2023/12/16 20:08:44;;;;;;;0.85;0.85;;;;;;;;;;5089164;28;20091;-69
2023/12/16 20:11:10;;;;;;;0.20;0.20;;;;;;;;;;5088323;28;20127;-70
2023/12/16 20:13:36;;;;;;;0.10;0.10;;;;;;;;;;5090110;28;20032;-69
2023/12/16 20:16:03;;;;;;;0.20;0.20;;;;;;;;;;5090100;28;20020;-70
2023/12/16 20:18:29;;;;;;;0.20;0.20;;;;;;;;;;5071080;28;20069;-71
2023/12/16 20:20:55;;;;;;;3.03;2.75;;;;;;;;;;5089752;28;20207;-70
2023/12/16 20:23:21;;;;;;;0.10;0.10;;;;;;;;;;5089727;28;20506;-71
2023/12/16 20:25:46;;;;;;;0.10;0.10;;;;;;;;;;5065582;28;20016;-71
2023/12/16 20:28:12;;;;;;;0.20;0.20;;;;;;;;;;5073527;28;20053;-70
2023/12/16 20:30:37;;;;;;;0.20;0.20;;;;;;;;;;5089159;28;20130;-70
2023/12/16 20:33:03;;;;;;;0.10;0.10;;;;;;;;;;5088632;28;20440;-70
2023/12/16 20:35:29;;;;;;;0.10;0.10;;;;;;;;;;5072125;28;20475;-69
2023/12/16 20:38:03;;;;;;;0.10;0.10;;;;;;;;;;5083083;28;20032;-70
2023/12/16 20:40:30;;;;;;;0.75;0.50;;;;;;;;;;5081516;28;20032;-70
2023/12/16 20:42:57;;;;;;;1.17;0.80;;;;;;;;;;5082905;28;20035;-70
2023/12/16 20:45:22;;;;;;;0.40;0.40;;;;;;;;;;5072117;28;20066;-70
2023/12/16 20:47:49;;;;;;;0.10;0.10;;;;;;;;;;5069267;28;20113;-70
2023/12/16 20:50:15;;;;;;;0.10;0.10;;;;;;;;;;5081195;28;20035;-70
2023/12/16 20:52:41;;;;;;;0.10;0.10;;;;;;;;;;5089184;28;20036;-70
2023/12/16 20:55:07;;;;;;;0.10;0.10;;;;;;;;;;5089805;28;20023;-70
2023/12/16 20:57:33;;;;;;;0.13;0.13;;;;;;;;;;5089396;28;20109;-70
2023/12/16 20:59:59;;;;;;;0.10;0.10;;;;;;;;;;5089383;28;20036;-70
2023/12/16 21:02:25;;;;;;;0.50;0.50;;;;;;;;;;5089516;28;20032;-69
2023/12/16 21:04:51;;;;;;;0.25;0.25;;;;;;;;;;5089316;28;20022;-70
2023/12/16 21:07:16;;;;;;;0.20;0.20;;;;;;;;;;5089379;28;20475;-69
2023/12/16 21:09:42;;;;;;;0.20;0.20;;;;;;;;;;5089346;28;20399;-70
2023/12/16 21:12:08;;;;;;;0.10;0.10;;;;;;;;;;5089525;28;20031;-69
2023/12/16 21:14:34;;;;;;;0.10;0.10;;;;;;;;;;5089406;28;20036;-70
2023/12/16 21:16:59;;;;;;;4.00;2.28;;;;;;;;;;5089481;28;20074;-71
2023/12/16 21:19:25;;;;;;;0.45;0.40;;;;;;;;;;5089580;28;20036;-70
2023/12/16 21:21:51;;;;;;;0.20;0.20;;;;;;;;;;5089296;28;20078;-70
2023/12/16 21:24:16;;;;;;;0.10;0.10;;;;;;;;;;5089177;28;20036;-70
2023/12/16 21:26:44;;;;;;;0.10;0.10;;;;;;;;;;5088503;28;20110;-70
2023/12/16 21:29:10;;;;;;;1.77;1.67;;;;;;;;;;5088669;28;20032;-71
2023/12/16 21:31:36;;;;;;;0.10;0.10;;;;;;;;;;5087528;28;20036;-70
2023/12/16 21:34:01;;;;;;;0.28;0.20;;;;;;;;;;5090870;28;20483;-69
2023/12/16 21:36:28;;;;;;;0.52;0.35;;;;;;;;;;5092468;28;20028;-70
2023/12/16 21:38:54;;;;;;;0.10;0.10;;;;;;;;;;5092817;28;20594;-69
2023/12/16 21:41:20;;;;;;;0.50;0.50;;;;;;;;;;5092564;28;20084;-69
2023/12/16 21:43:46;;;;;;;0.10;0.10;;;;;;;;;;5092435;28;20534;-70
2023/12/16 21:46:11;;;;;;;4.25;2.45;;;;;;;;;;5086191;28;20028;-71
2023/12/16 21:48:38;;;;;;;0.32;0.32;;;;;;;;;;5060915;28;20056;-70
2023/12/16 21:51:10;;;;;;;0.10;0.10;;;;;;;;;;5089684;28;20024;-70
2023/12/16 21:53:35;;;;;;;0.10;0.10;;;;;;;;;;5092491;28;20429;-70
2023/12/16 21:56:01;;;;;;;0.10;0.10;;;;;;;;;;5092239;28;20024;-69
2023/12/16 21:58:27;;;;;;;0.17;0.17;;;;;;;;;;5092370;28;20032;-70
2023/12/16 22:00:52;;;;;;;0.10;0.10;;;;;;;;;;5092726;28;20528;-69
2023/12/16 22:03:18;;;;;;;0.10;0.10;;;;;;;;;;5093414;28;20051;-70
2023/12/16 22:05:46;;;;;;;0.10;0.10;;;;;;;;;;5074368;28;20463;-70
2023/12/16 22:08:12;;;;;;;0.20;0.20;;;;;;;;;;5092728;28;20077;-68
2023/12/16 22:10:38;;;;;;;0.22;0.22;;;;;;;;;;5091964;28;20032;-69
2023/12/16 22:13:04;;;;;;;0.10;0.10;;;;;;;;;;5091857;28;20036;-70
2023/12/16 22:15:29;;;;;;;0.25;0.25;;;;;;;;;;5092157;28;20027;-70
2023/12/16 22:17:55;;;;;;;0.10;0.10;;;;;;;;;;5092304;28;20243;-70
2023/12/16 22:20:21;;;;;;;0.10;0.10;;;;;;;;;;5092003;28;20028;-70
2023/12/16 22:22:47;;;;;;;0.10;0.10;;;;;;;;;;5091792;28;20058;-69
2023/12/16 22:25:13;;;;;;;0.10;0.10;;;;;;;;;;5091720;28;20023;-70
2023/12/16 22:27:39;;;;;;;0.10;0.10;;;;;;;;;;5091672;28;20047;-69
2023/12/16 22:30:05;;;;;;;0.10;0.10;;;;;;;;;;5091974;28;20020;-70
2023/12/16 22:32:30;;;;;;;0.10;0.10;;;;;;;;;;5091451;28;20496;-70
2023/12/16 22:34:56;;;;;;;0.45;0.45;;;;;;;;;;5091975;28;20063;-69
2023/12/16 22:37:22;;;;;;;0.10;0.10;;;;;;;;;;5091592;28;20031;-70
2023/12/16 22:39:48;;;;;;;0.10;0.10;;;;;;;;;;5091333;28;20032;-70
2023/12/16 22:42:16;;;;;;;0.10;0.10;;;;;;;;;;5091570;28;20409;-70
2023/12/16 22:44:42;;;;;;;1.65;1.55;;;;;;;;;;5090504;28;20035;-70
2023/12/16 22:47:08;;;;;;;0.10;0.10;;;;;;;;;;5091572;28;20016;-70
2023/12/16 22:49:33;;;;;;;0.10;0.10;;;;;;;;;;5091636;28;20050;-69
2023/12/16 22:51:59;;;;;;;0.10;0.10;;;;;;;;;;5091115;28;20032;-69
2023/12/16 22:54:24;;;;;;;0.10;0.10;;;;;;;;;;5090049;28;20039;-69
2023/12/16 22:56:50;;;;;;;0.10;0.10;;;;;;;;;;5091404;28;20032;-69
2023/12/16 22:59:16;;;;;;;0.10;0.10;;;;;;;;;;5071278;28;20059;-70
2023/12/16 23:01:41;;;;;;;0.10;0.10;;;;;;;;;;5086198;28;20483;-70
2023/12/16 23:04:07;;;;;;;0.10;0.10;;;;;;;;;;5088153;28;20039;-70